sensor_id;sensor_type;location;lat;lon;timestamp;P1;durP1;ratioP1;P2;durP2;ratioP2
1839;SDS011;920;48.944;9.148;2023-12-20T00:00:28;17.23;;;11.77;;
1839;SDS011;920;48.944;9.148;2023-12-20T00:02:59;15.00;;;11.27;;
1839;SDS011;920;48.944;9.148;2023-12-20T00:05:26;14.53;;;10.47;;
1839;SDS011;920;48.944;9.148;2023-12-20T00:07:53;15.53;;;9.50;;
1839;SDS011;920;48.944;9.148;2023-12-20T00:10:19;11.10;;;9.10;;
1839;SDS011;920;48.944;9.148;2023-12-20T00:12:46;10.73;;;8.60;;
1839;SDS011;920;48.944;9.148;2023-12-20T00:15:13;12.20;;;9.40;;
1839;SDS011;920;48.944;9.148;2023-12-20T00:17:40;13.07;;;8.60;;
1839;SDS011;920;48.944;9.148;2023-12-20T00:20:09;9.37;;;8.30;;
1839;SDS011;920;48.944;9.148;2023-12-20T00:22:36;8.70;;;7.80;;
1839;SDS011;920;48.944;9.148;2023-12-20T00:25:03;9.40;;;8.30;;
1839;SDS011;920;48.944;9.148;2023-12-20T00:27:30;9.87;;;8.20;;
1839;SDS011;920;48.944;9.148;2023-12-20T00:29:57;9.37;;;7.70;;
1839;SDS011;920;48.944;9.148;2023-12-20T00:32:23;10.17;;;7.20;;
1839;SDS011;920;48.944;9.148;2023-12-20T00:34:50;11.43;;;7.80;;
1839;SDS011;920;48.944;9.148;2023-12-20T00:37:18;8.30;;;6.67;;
1839;SDS011;920;48.944;9.148;2023-12-20T00:39:45;8.43;;;6.90;;
1839;SDS011;920;48.944;9.148;2023-12-20T00:42:11;7.80;;;6.10;;
1839;SDS011;920;48.944;9.148;2023-12-20T00:44:38;8.07;;;6.50;;
1839;SDS011;920;48.944;9.148;2023-12-20T00:47:05;7.93;;;6.33;;
1839;SDS011;920;48.944;9.148;2023-12-20T00:49:32;9.13;;;7.00;;
1839;SDS011;920;48.944;9.148;2023-12-20T00:51:58;8.10;;;6.63;;
1839;SDS011;920;48.944;9.148;2023-12-20T00:54:27;8.93;;;6.83;;
1839;SDS011;920;48.944;9.148;2023-12-20T00:56:54;10.70;;;8.27;;
1839;SDS011;920;48.944;9.148;2023-12-20T00:59:20;13.60;;;10.20;;
1839;SDS011;920;48.944;9.148;2023-12-20T01:01:47;12.97;;;11.40;;
1839;SDS011;920;48.944;9.148;2023-12-20T01:04:14;12.60;;;9.63;;
1839;SDS011;920;48.944;9.148;2023-12-20T01:06:41;9.83;;;8.70;;
1839;SDS011;920;48.944;9.148;2023-12-20T01:09:07;8.80;;;7.83;;
1839;SDS011;920;48.944;9.148;2023-12-20T01:11:35;10.17;;;8.30;;
1839;SDS011;920;48.944;9.148;2023-12-20T01:14:02;11.07;;;8.50;;
1839;SDS011;920;48.944;9.148;2023-12-20T01:16:29;9.10;;;6.83;;
1839;SDS011;920;48.944;9.148;2023-12-20T01:18:55;10.90;;;8.20;;
1839;SDS011;920;48.944;9.148;2023-12-20T01:21:22;11.00;;;9.50;;
1839;SDS011;920;48.944;9.148;2023-12-20T01:23:49;13.40;;;9.80;;
1839;SDS011;920;48.944;9.148;2023-12-20T01:26:16;12.83;;;9.50;;
1839;SDS011;920;48.944;9.148;2023-12-20T01:28:44;13.67;;;8.90;;
1839;SDS011;920;48.944;9.148;2023-12-20T01:31:11;12.10;;;8.67;;
1839;SDS011;920;48.944;9.148;2023-12-20T01:33:38;10.63;;;8.07;;
1839;SDS011;920;48.944;9.148;2023-12-20T01:36:04;9.77;;;7.83;;
1839;SDS011;920;48.944;9.148;2023-12-20T01:38:31;8.93;;;6.50;;
1839;SDS011;920;48.944;9.148;2023-12-20T01:40:58;6.90;;;5.13;;
1839;SDS011;920;48.944;9.148;2023-12-20T01:43:25;6.87;;;5.00;;
1839;SDS011;920;48.944;9.148;2023-12-20T01:45:53;5.70;;;4.40;;
1839;SDS011;920;48.944;9.148;2023-12-20T01:48:21;5.60;;;4.23;;
1839;SDS011;920;48.944;9.148;2023-12-20T01:50:48;4.80;;;3.47;;
1839;SDS011;920;48.944;9.148;2023-12-20T01:53:15;5.37;;;4.10;;
1839;SDS011;920;48.944;9.148;2023-12-20T01:55:44;5.30;;;4.00;;
1839;SDS011;920;48.944;9.148;2023-12-20T01:58:11;4.20;;;3.40;;
1839;SDS011;920;48.944;9.148;2023-12-20T02:00:38;4.67;;;3.60;;
1839;SDS011;920;48.944;9.148;2023-12-20T02:03:07;4.10;;;3.30;;
1839;SDS011;920;48.944;9.148;2023-12-20T02:05:34;4.80;;;3.53;;
1839;SDS011;920;48.944;9.148;2023-12-20T02:08:01;3.77;;;3.10;;
1839;SDS011;920;48.944;9.148;2023-12-20T02:10:28;4.47;;;3.70;;
1839;SDS011;920;48.944;9.148;2023-12-20T02:12:55;3.83;;;2.80;;
1839;SDS011;920;48.944;9.148;2023-12-20T02:15:22;4.07;;;3.27;;
1839;SDS011;920;48.944;9.148;2023-12-20T02:17:48;4.13;;;2.97;;
1839;SDS011;920;48.944;9.148;2023-12-20T02:20:17;3.63;;;2.63;;
1839;SDS011;920;48.944;9.148;2023-12-20T02:22:45;3.80;;;2.50;;
1839;SDS011;920;48.944;9.148;2023-12-20T02:25:12;3.63;;;2.63;;
1839;SDS011;920;48.944;9.148;2023-12-20T02:27:38;3.10;;;2.10;;
1839;SDS011;920;48.944;9.148;2023-12-20T02:30:06;3.87;;;2.40;;
1839;SDS011;920;48.944;9.148;2023-12-20T02:32:33;3.10;;;2.20;;
1839;SDS011;920;48.944;9.148;2023-12-20T02:34:59;3.10;;;2.00;;
1839;SDS011;920;48.944;9.148;2023-12-20T02:37:26;5.00;;;2.00;;
1839;SDS011;920;48.944;9.148;2023-12-20T02:39:54;2.20;;;1.60;;
1839;SDS011;920;48.944;9.148;2023-12-20T02:42:21;2.30;;;1.37;;
1839;SDS011;920;48.944;9.148;2023-12-20T02:44:48;2.23;;;1.30;;
1839;SDS011;920;48.944;9.148;2023-12-20T02:47:14;2.27;;;1.47;;
1839;SDS011;920;48.944;9.148;2023-12-20T02:49:41;1.73;;;1.10;;
1839;SDS011;920;48.944;9.148;2023-12-20T02:52:08;2.80;;;1.30;;
1839;SDS011;920;48.944;9.148;2023-12-20T02:54:35;1.50;;;0.87;;
1839;SDS011;920;48.944;9.148;2023-12-20T02:57:03;2.03;;;1.00;;
1839;SDS011;920;48.944;9.148;2023-12-20T02:59:30;1.80;;;0.90;;
1839;SDS011;920;48.944;9.148;2023-12-20T03:01:57;1.60;;;0.90;;
1839;SDS011;920;48.944;9.148;2023-12-20T03:04:23;1.80;;;1.10;;
1839;SDS011;920;48.944;9.148;2023-12-20T03:06:50;1.43;;;0.80;;
1839;SDS011;920;48.944;9.148;2023-12-20T03:09:17;2.07;;;0.83;;
1839;SDS011;920;48.944;9.148;2023-12-20T03:11:44;1.80;;;0.80;;
1839;SDS011;920;48.944;9.148;2023-12-20T03:14:12;1.70;;;0.90;;
1839;SDS011;920;48.944;9.148;2023-12-20T03:16:38;2.00;;;1.00;;
1839;SDS011;920;48.944;9.148;2023-12-20T03:19:05;1.60;;;0.90;;
1839;SDS011;920;48.944;9.148;2023-12-20T03:21:32;2.10;;;0.97;;
1839;SDS011;920;48.944;9.148;2023-12-20T03:24:01;1.63;;;0.83;;
1839;SDS011;920;48.944;9.148;2023-12-20T03:26:28;2.43;;;0.90;;
1839;SDS011;920;48.944;9.148;2023-12-20T03:28:55;1.50;;;0.70;;
1839;SDS011;920;48.944;9.148;2023-12-20T03:31:23;1.67;;;0.90;;
1839;SDS011;920;48.944;9.148;2023-12-20T03:33:49;1.30;;;0.70;;
1839;SDS011;920;48.944;9.148;2023-12-20T03:36:18;1.70;;;0.70;;
1839;SDS011;920;48.944;9.148;2023-12-20T03:38:45;1.80;;;0.60;;
1839;SDS011;920;48.944;9.148;2023-12-20T03:41:13;1.70;;;0.90;;
1839;SDS011;920;48.944;9.148;2023-12-20T03:43:40;2.00;;;0.90;;
1839;SDS011;920;48.944;9.148;2023-12-20T03:46:07;1.40;;;0.80;;
1839;SDS011;920;48.944;9.148;2023-12-20T03:48:35;1.60;;;0.80;;
1839;SDS011;920;48.944;9.148;2023-12-20T03:51:02;1.87;;;0.80;;
1839;SDS011;920;48.944;9.148;2023-12-20T03:53:29;1.40;;;0.70;;
1839;SDS011;920;48.944;9.148;2023-12-20T03:55:55;2.00;;;1.00;;
1839;SDS011;920;48.944;9.148;2023-12-20T03:58:22;1.50;;;0.80;;
1839;SDS011;920;48.944;9.148;2023-12-20T04:00:49;1.40;;;0.80;;
1839;SDS011;920;48.944;9.148;2023-12-20T04:03:16;1.50;;;0.70;;
1839;SDS011;920;48.944;9.148;2023-12-20T04:05:44;1.50;;;0.77;;
1839;SDS011;920;48.944;9.148;2023-12-20T04:08:10;1.47;;;0.80;;
1839;SDS011;920;48.944;9.148;2023-12-20T04:10:37;1.37;;;0.80;;
1839;SDS011;920;48.944;9.148;2023-12-20T04:13:04;1.50;;;0.80;;
1839;SDS011;920;48.944;9.148;2023-12-20T04:15:31;1.30;;;0.63;;
1839;SDS011;920;48.944;9.148;2023-12-20T04:17:57;1.60;;;0.80;;
1839;SDS011;920;48.944;9.148;2023-12-20T04:20:24;1.57;;;0.90;;
1839;SDS011;920;48.944;9.148;2023-12-20T04:22:52;1.70;;;0.80;;
1839;SDS011;920;48.944;9.148;2023-12-20T04:25:19;1.27;;;0.60;;
1839;SDS011;920;48.944;9.148;2023-12-20T04:27:46;1.50;;;0.80;;
1839;SDS011;920;48.944;9.148;2023-12-20T04:30:13;1.60;;;1.00;;
1839;SDS011;920;48.944;9.148;2023-12-20T04:32:40;1.37;;;0.70;;
1839;SDS011;920;48.944;9.148;2023-12-20T04:35:09;1.40;;;0.80;;
1839;SDS011;920;48.944;9.148;2023-12-20T04:37:36;1.50;;;0.80;;
1839;SDS011;920;48.944;9.148;2023-12-20T04:40:04;2.10;;;1.00;;
1839;SDS011;920;48.944;9.148;2023-12-20T04:42:33;1.80;;;0.90;;
1839;SDS011;920;48.944;9.148;2023-12-20T04:45:00;1.50;;;0.90;;
1839;SDS011;920;48.944;9.148;2023-12-20T04:47:28;1.43;;;0.77;;
1839;SDS011;920;48.944;9.148;2023-12-20T04:49:55;1.53;;;0.80;;
1839;SDS011;920;48.944;9.148;2023-12-20T04:52:21;1.73;;;0.90;;
1839;SDS011;920;48.944;9.148;2023-12-20T04:54:48;1.80;;;0.83;;
1839;SDS011;920;48.944;9.148;2023-12-20T04:57:16;1.80;;;1.00;;
1839;SDS011;920;48.944;9.148;2023-12-20T04:59:43;1.87;;;1.10;;
1839;SDS011;920;48.944;9.148;2023-12-20T05:02:10;1.60;;;1.00;;
1839;SDS011;920;48.944;9.148;2023-12-20T05:04:36;1.83;;;1.13;;
1839;SDS011;920;48.944;9.148;2023-12-20T05:07:03;1.97;;;1.37;;
1839;SDS011;920;48.944;9.148;2023-12-20T05:09:31;2.70;;;1.57;;
1839;SDS011;920;48.944;9.148;2023-12-20T05:11:57;2.10;;;1.50;;
1839;SDS011;920;48.944;9.148;2023-12-20T05:14:26;2.63;;;1.40;;
1839;SDS011;920;48.944;9.148;2023-12-20T05:16:52;3.20;;;2.30;;
1839;SDS011;920;48.944;9.148;2023-12-20T05:19:19;3.10;;;2.60;;
1839;SDS011;920;48.944;9.148;2023-12-20T05:21:46;2.00;;;1.43;;
1839;SDS011;920;48.944;9.148;2023-12-20T05:24:12;2.23;;;1.50;;
1839;SDS011;920;48.944;9.148;2023-12-20T05:26:39;3.37;;;1.57;;
1839;SDS011;920;48.944;9.148;2023-12-20T05:29:06;2.30;;;1.57;;
1839;SDS011;920;48.944;9.148;2023-12-20T05:31:35;2.80;;;1.50;;
1839;SDS011;920;48.944;9.148;2023-12-20T05:34:01;2.40;;;1.50;;
1839;SDS011;920;48.944;9.148;2023-12-20T05:36:31;2.20;;;1.30;;
1839;SDS011;920;48.944;9.148;2023-12-20T05:38:58;2.37;;;1.60;;
1839;SDS011;920;48.944;9.148;2023-12-20T05:41:27;3.10;;;1.90;;
1839;SDS011;920;48.944;9.148;2023-12-20T05:43:54;2.43;;;1.53;;
1839;SDS011;920;48.944;9.148;2023-12-20T05:46:23;2.10;;;1.60;;
1839;SDS011;920;48.944;9.148;2023-12-20T05:48:51;2.40;;;1.73;;
1839;SDS011;920;48.944;9.148;2023-12-20T05:51:18;2.27;;;1.70;;
1839;SDS011;920;48.944;9.148;2023-12-20T05:53:44;2.00;;;1.67;;
1839;SDS011;920;48.944;9.148;2023-12-20T05:56:11;2.80;;;1.97;;
1839;SDS011;920;48.944;9.148;2023-12-20T05:58:38;4.33;;;1.70;;
1839;SDS011;920;48.944;9.148;2023-12-20T06:01:05;2.30;;;1.60;;
1839;SDS011;920;48.944;9.148;2023-12-20T06:03:33;2.43;;;1.70;;
1839;SDS011;920;48.944;9.148;2023-12-20T06:06:05;2.43;;;1.73;;
1839;SDS011;920;48.944;9.148;2023-12-20T06:08:32;2.40;;;1.63;;
1839;SDS011;920;48.944;9.148;2023-12-20T06:10:59;2.60;;;1.73;;
1839;SDS011;920;48.944;9.148;2023-12-20T06:13:26;2.17;;;1.57;;
1839;SDS011;920;48.944;9.148;2023-12-20T06:15:53;2.20;;;1.70;;
1839;SDS011;920;48.944;9.148;2023-12-20T06:18:20;2.33;;;1.80;;
1839;SDS011;920;48.944;9.148;2023-12-20T06:20:47;2.10;;;1.60;;
1839;SDS011;920;48.944;9.148;2023-12-20T06:23:15;2.60;;;1.70;;
1839;SDS011;920;48.944;9.148;2023-12-20T06:25:42;2.50;;;1.87;;
1839;SDS011;920;48.944;9.148;2023-12-20T06:28:09;2.30;;;1.70;;
1839;SDS011;920;48.944;9.148;2023-12-20T06:30:39;2.30;;;1.70;;
1839;SDS011;920;48.944;9.148;2023-12-20T06:33:06;2.37;;;1.93;;
1839;SDS011;920;48.944;9.148;2023-12-20T06:35:35;2.90;;;2.10;;
1839;SDS011;920;48.944;9.148;2023-12-20T06:38:01;2.80;;;2.20;;
1839;SDS011;920;48.944;9.148;2023-12-20T06:40:30;2.57;;;2.10;;
1839;SDS011;920;48.944;9.148;2023-12-20T06:42:56;2.87;;;2.30;;
1839;SDS011;920;48.944;9.148;2023-12-20T06:45:24;3.30;;;2.30;;
1839;SDS011;920;48.944;9.148;2023-12-20T06:47:51;2.83;;;2.53;;
1839;SDS011;920;48.944;9.148;2023-12-20T06:50:19;3.00;;;2.43;;
1839;SDS011;920;48.944;9.148;2023-12-20T06:52:46;3.80;;;2.53;;
1839;SDS011;920;48.944;9.148;2023-12-20T06:55:13;2.83;;;2.53;;
1839;SDS011;920;48.944;9.148;2023-12-20T06:57:41;3.87;;;3.37;;
1839;SDS011;920;48.944;9.148;2023-12-20T07:00:08;3.30;;;3.00;;
1839;SDS011;920;48.944;9.148;2023-12-20T07:02:37;3.30;;;2.90;;
1839;SDS011;920;48.944;9.148;2023-12-20T07:05:04;3.43;;;3.10;;
1839;SDS011;920;48.944;9.148;2023-12-20T07:07:31;3.50;;;3.20;;
1839;SDS011;920;48.944;9.148;2023-12-20T07:09:58;4.47;;;3.20;;
1839;SDS011;920;48.944;9.148;2023-12-20T07:12:25;4.00;;;3.60;;
1839;SDS011;920;48.944;9.148;2023-12-20T07:14:53;4.90;;;4.23;;
1839;SDS011;920;48.944;9.148;2023-12-20T07:17:19;4.43;;;4.03;;
1839;SDS011;920;48.944;9.148;2023-12-20T07:19:47;4.30;;;3.90;;
1839;SDS011;920;48.944;9.148;2023-12-20T07:22:14;4.50;;;4.10;;
1839;SDS011;920;48.944;9.148;2023-12-20T07:24:40;4.60;;;3.53;;
1839;SDS011;920;48.944;9.148;2023-12-20T07:27:07;4.10;;;3.67;;
1839;SDS011;920;48.944;9.148;2023-12-20T07:29:34;4.57;;;3.60;;
1839;SDS011;920;48.944;9.148;2023-12-20T07:32:02;3.57;;;3.27;;
1839;SDS011;920;48.944;9.148;2023-12-20T07:34:29;4.20;;;3.80;;
1839;SDS011;920;48.944;9.148;2023-12-20T07:36:55;4.07;;;3.47;;
1839;SDS011;920;48.944;9.148;2023-12-20T07:39:22;4.27;;;3.37;;
1839;SDS011;920;48.944;9.148;2023-12-20T07:41:49;4.07;;;3.67;;
1839;SDS011;920;48.944;9.148;2023-12-20T07:44:16;4.10;;;3.60;;
1839;SDS011;920;48.944;9.148;2023-12-20T07:46:42;4.03;;;3.57;;
1839;SDS011;920;48.944;9.148;2023-12-20T07:49:10;3.80;;;3.37;;
1839;SDS011;920;48.944;9.148;2023-12-20T07:51:37;3.97;;;3.40;;
1839;SDS011;920;48.944;9.148;2023-12-20T07:54:04;5.03;;;3.20;;
1839;SDS011;920;48.944;9.148;2023-12-20T07:56:33;3.97;;;3.40;;
1839;SDS011;920;48.944;9.148;2023-12-20T07:58:59;4.20;;;3.53;;
1839;SDS011;920;48.944;9.148;2023-12-20T08:01:26;3.87;;;3.10;;
1839;SDS011;920;48.944;9.148;2023-12-20T08:03:53;3.53;;;3.23;;
1839;SDS011;920;48.944;9.148;2023-12-20T08:06:21;4.67;;;3.03;;
1839;SDS011;920;48.944;9.148;2023-12-20T08:08:48;3.57;;;3.20;;
1839;SDS011;920;48.944;9.148;2023-12-20T08:11:15;3.20;;;2.90;;
1839;SDS011;920;48.944;9.148;2023-12-20T08:13:42;3.80;;;3.33;;
1839;SDS011;920;48.944;9.148;2023-12-20T08:16:09;3.70;;;3.30;;
1839;SDS011;920;48.944;9.148;2023-12-20T08:18:38;3.93;;;3.30;;
1839;SDS011;920;48.944;9.148;2023-12-20T08:21:05;4.20;;;3.30;;
1839;SDS011;920;48.944;9.148;2023-12-20T08:23:34;4.03;;;3.23;;
1839;SDS011;920;48.944;9.148;2023-12-20T08:26:03;3.40;;;3.00;;
1839;SDS011;920;48.944;9.148;2023-12-20T08:28:30;4.20;;;3.50;;
1839;SDS011;920;48.944;9.148;2023-12-20T08:30:57;3.73;;;3.20;;
1839;SDS011;920;48.944;9.148;2023-12-20T08:33:24;4.70;;;3.00;;
1839;SDS011;920;48.944;9.148;2023-12-20T08:35:50;4.17;;;3.23;;
1839;SDS011;920;48.944;9.148;2023-12-20T08:38:17;4.83;;;3.03;;
1839;SDS011;920;48.944;9.148;2023-12-20T08:40:45;5.17;;;3.13;;
1839;SDS011;920;48.944;9.148;2023-12-20T08:43:13;3.23;;;2.60;;
1839;SDS011;920;48.944;9.148;2023-12-20T08:45:40;3.30;;;2.57;;
1839;SDS011;920;48.944;9.148;2023-12-20T08:48:07;5.30;;;3.40;;
1839;SDS011;920;48.944;9.148;2023-12-20T08:50:33;3.60;;;2.80;;
1839;SDS011;920;48.944;9.148;2023-12-20T08:53:00;3.60;;;2.83;;
1839;SDS011;920;48.944;9.148;2023-12-20T08:55:27;3.53;;;2.60;;
1839;SDS011;920;48.944;9.148;2023-12-20T08:57:55;4.47;;;3.00;;
1839;SDS011;920;48.944;9.148;2023-12-20T09:00:22;4.83;;;3.37;;
1839;SDS011;920;48.944;9.148;2023-12-20T09:02:52;4.07;;;2.60;;
1839;SDS011;920;48.944;9.148;2023-12-20T09:05:19;4.97;;;3.10;;
1839;SDS011;920;48.944;9.148;2023-12-20T09:07:46;3.67;;;3.00;;
1839;SDS011;920;48.944;9.148;2023-12-20T09:10:12;3.07;;;2.57;;
1839;SDS011;920;48.944;9.148;2023-12-20T09:12:39;3.10;;;2.57;;
1839;SDS011;920;48.944;9.148;2023-12-20T09:15:09;4.60;;;2.73;;
1839;SDS011;920;48.944;9.148;2023-12-20T09:17:35;3.77;;;2.97;;
1839;SDS011;920;48.944;9.148;2023-12-20T09:20:02;3.47;;;2.60;;
1839;SDS011;920;48.944;9.148;2023-12-20T09:22:32;3.10;;;2.67;;
1839;SDS011;920;48.944;9.148;2023-12-20T09:24:58;4.10;;;2.73;;
1839;SDS011;920;48.944;9.148;2023-12-20T09:27:25;3.43;;;2.80;;
1839;SDS011;920;48.944;9.148;2023-12-20T09:29:52;4.77;;;2.83;;
1839;SDS011;920;48.944;9.148;2023-12-20T09:32:20;3.77;;;2.67;;
1839;SDS011;920;48.944;9.148;2023-12-20T09:34:47;3.47;;;2.30;;
1839;SDS011;920;48.944;9.148;2023-12-20T09:37:14;4.43;;;2.67;;
1839;SDS011;920;48.944;9.148;2023-12-20T09:39:40;5.00;;;2.67;;
1839;SDS011;920;48.944;9.148;2023-12-20T09:42:08;4.73;;;2.23;;
1839;SDS011;920;48.944;9.148;2023-12-20T09:44:37;4.50;;;2.57;;
1839;SDS011;920;48.944;9.148;2023-12-20T09:47:07;4.90;;;2.60;;
1839;SDS011;920;48.944;9.148;2023-12-20T09:49:35;5.03;;;2.00;;
1839;SDS011;920;48.944;9.148;2023-12-20T09:52:03;3.83;;;2.50;;
1839;SDS011;920;48.944;9.148;2023-12-20T09:54:31;3.27;;;2.23;;
1839;SDS011;920;48.944;9.148;2023-12-20T09:56:58;3.53;;;2.00;;
1839;SDS011;920;48.944;9.148;2023-12-20T09:59:24;3.07;;;2.00;;
1839;SDS011;920;48.944;9.148;2023-12-20T10:01:51;2.67;;;1.80;;
1839;SDS011;920;48.944;9.148;2023-12-20T10:04:22;2.87;;;1.70;;
1839;SDS011;920;48.944;9.148;2023-12-20T10:06:50;3.00;;;1.80;;
1839;SDS011;920;48.944;9.148;2023-12-20T10:09:17;3.00;;;1.60;;
1839;SDS011;920;48.944;9.148;2023-12-20T10:11:44;2.13;;;1.33;;
1839;SDS011;920;48.944;9.148;2023-12-20T10:14:11;2.83;;;1.70;;
1839;SDS011;920;48.944;9.148;2023-12-20T10:16:40;3.33;;;2.07;;
1839;SDS011;920;48.944;9.148;2023-12-20T10:19:07;3.03;;;1.50;;
1839;SDS011;920;48.944;9.148;2023-12-20T10:21:34;3.80;;;1.70;;
1839;SDS011;920;48.944;9.148;2023-12-20T10:24:02;5.40;;;2.03;;
1839;SDS011;920;48.944;9.148;2023-12-20T10:26:29;3.67;;;2.00;;
1839;SDS011;920;48.944;9.148;2023-12-20T10:28:56;5.30;;;1.97;;
1839;SDS011;920;48.944;9.148;2023-12-20T10:31:26;5.27;;;1.60;;
1839;SDS011;920;48.944;9.148;2023-12-20T10:33:55;6.37;;;1.97;;
1839;SDS011;920;48.944;9.148;2023-12-20T10:36:22;4.07;;;1.67;;
1839;SDS011;920;48.944;9.148;2023-12-20T10:38:52;3.00;;;1.50;;
1839;SDS011;920;48.944;9.148;2023-12-20T10:41:21;4.27;;;1.97;;
1839;SDS011;920;48.944;9.148;2023-12-20T10:43:53;2.93;;;1.57;;
1839;SDS011;920;48.944;9.148;2023-12-20T10:46:22;5.33;;;1.90;;
1839;SDS011;920;48.944;9.148;2023-12-20T10:48:48;3.40;;;1.53;;
1839;SDS011;920;48.944;9.148;2023-12-20T10:51:17;4.00;;;1.93;;
1839;SDS011;920;48.944;9.148;2023-12-20T10:53:45;4.00;;;1.40;;
1839;SDS011;920;48.944;9.148;2023-12-20T10:56:15;4.50;;;1.83;;
1839;SDS011;920;48.944;9.148;2023-12-20T10:58:44;3.23;;;1.40;;
1839;SDS011;920;48.944;9.148;2023-12-20T11:01:12;3.40;;;1.77;;
1839;SDS011;920;48.944;9.148;2023-12-20T11:03:39;4.47;;;1.63;;
1839;SDS011;920;48.944;9.148;2023-12-20T11:06:13;3.63;;;1.80;;
1839;SDS011;920;48.944;9.148;2023-12-20T11:09:01;4.70;;;1.70;;
1839;SDS011;920;48.944;9.148;2023-12-20T11:11:35;4.63;;;1.43;;
1839;SDS011;920;48.944;9.148;2023-12-20T11:14:06;5.83;;;1.83;;
1839;SDS011;920;48.944;9.148;2023-12-20T11:16:36;7.23;;;2.00;;
1839;SDS011;920;48.944;9.148;2023-12-20T11:19:04;3.20;;;1.60;;
1839;SDS011;920;48.944;9.148;2023-12-20T11:21:31;2.90;;;1.30;;
1839;SDS011;920;48.944;9.148;2023-12-20T11:23:58;3.30;;;1.40;;
1839;SDS011;920;48.944;9.148;2023-12-20T11:26:26;5.23;;;2.50;;
1839;SDS011;920;48.944;9.148;2023-12-20T11:28:54;4.23;;;2.00;;
1839;SDS011;920;48.944;9.148;2023-12-20T11:31:22;4.70;;;1.60;;
1839;SDS011;920;48.944;9.148;2023-12-20T11:33:48;3.10;;;1.60;;
1839;SDS011;920;48.944;9.148;2023-12-20T11:36:18;3.30;;;1.47;;
1839;SDS011;920;48.944;9.148;2023-12-20T11:38:53;3.23;;;2.10;;
1839;SDS011;920;48.944;9.148;2023-12-20T11:41:22;4.03;;;1.73;;
1839;SDS011;920;48.944;9.148;2023-12-20T11:43:49;5.13;;;2.40;;
1839;SDS011;920;48.944;9.148;2023-12-20T11:46:19;4.40;;;2.20;;
1839;SDS011;920;48.944;9.148;2023-12-20T11:48:48;3.00;;;1.70;;
1839;SDS011;920;48.944;9.148;2023-12-20T11:51:15;5.80;;;2.20;;
1839;SDS011;920;48.944;9.148;2023-12-20T11:53:42;2.73;;;1.77;;
1839;SDS011;920;48.944;9.148;2023-12-20T11:56:09;3.90;;;1.97;;
1839;SDS011;920;48.944;9.148;2023-12-20T11:58:36;3.80;;;2.17;;
1839;SDS011;920;48.944;9.148;2023-12-20T12:01:03;6.63;;;2.20;;
1839;SDS011;920;48.944;9.148;2023-12-20T12:03:32;3.90;;;1.93;;
1839;SDS011;920;48.944;9.148;2023-12-20T12:06:00;5.77;;;1.90;;
1839;SDS011;920;48.944;9.148;2023-12-20T12:08:29;4.70;;;2.07;;
1839;SDS011;920;48.944;9.148;2023-12-20T12:10:56;3.77;;;1.90;;
1839;SDS011;920;48.944;9.148;2023-12-20T12:13:23;4.30;;;1.97;;
1839;SDS011;920;48.944;9.148;2023-12-20T12:15:52;3.27;;;1.60;;
1839;SDS011;920;48.944;9.148;2023-12-20T12:18:19;2.93;;;1.70;;
1839;SDS011;920;48.944;9.148;2023-12-20T12:20:46;3.63;;;1.67;;
1839;SDS011;920;48.944;9.148;2023-12-20T12:23:14;4.83;;;2.10;;
1839;SDS011;920;48.944;9.148;2023-12-20T12:25:49;3.93;;;2.00;;
1839;SDS011;920;48.944;9.148;2023-12-20T12:28:16;3.50;;;1.93;;
1839;SDS011;920;48.944;9.148;2023-12-20T12:30:42;5.97;;;2.20;;
1839;SDS011;920;48.944;9.148;2023-12-20T12:33:10;5.10;;;2.07;;
1839;SDS011;920;48.944;9.148;2023-12-20T12:35:36;5.17;;;2.30;;
1839;SDS011;920;48.944;9.148;2023-12-20T12:38:03;4.73;;;2.10;;
1839;SDS011;920;48.944;9.148;2023-12-20T12:40:34;3.67;;;1.90;;
1839;SDS011;920;48.944;9.148;2023-12-20T12:43:01;4.13;;;1.80;;
1839;SDS011;920;48.944;9.148;2023-12-20T12:45:28;4.27;;;2.00;;
1839;SDS011;920;48.944;9.148;2023-12-20T12:47:54;4.87;;;2.20;;
1839;SDS011;920;48.944;9.148;2023-12-20T12:50:21;5.20;;;2.63;;
1839;SDS011;920;48.944;9.148;2023-12-20T12:52:48;4.40;;;1.80;;
1839;SDS011;920;48.944;9.148;2023-12-20T12:55:14;4.27;;;2.00;;
1839;SDS011;920;48.944;9.148;2023-12-20T12:57:43;4.67;;;1.83;;
1839;SDS011;920;48.944;9.148;2023-12-20T13:00:10;3.67;;;2.00;;
1839;SDS011;920;48.944;9.148;2023-12-20T13:02:37;4.33;;;1.70;;
1839;SDS011;920;48.944;9.148;2023-12-20T13:05:07;6.47;;;2.13;;
1839;SDS011;920;48.944;9.148;2023-12-20T13:07:34;3.63;;;1.80;;
1839;SDS011;920;48.944;9.148;2023-12-20T13:10:00;5.13;;;2.30;;
1839;SDS011;920;48.944;9.148;2023-12-20T13:12:28;6.30;;;2.00;;
1839;SDS011;920;48.944;9.148;2023-12-20T13:14:56;3.10;;;1.67;;
1839;SDS011;920;48.944;9.148;2023-12-20T13:17:23;4.70;;;2.10;;
1839;SDS011;920;48.944;9.148;2023-12-20T13:19:49;5.20;;;1.73;;
1839;SDS011;920;48.944;9.148;2023-12-20T13:22:16;4.90;;;2.03;;
1839;SDS011;920;48.944;9.148;2023-12-20T13:24:43;5.00;;;1.97;;
1839;SDS011;920;48.944;9.148;2023-12-20T13:27:10;5.00;;;1.80;;
1839;SDS011;920;48.944;9.148;2023-12-20T13:29:37;3.73;;;2.07;;
1839;SDS011;920;48.944;9.148;2023-12-20T13:32:06;5.57;;;1.93;;
1839;SDS011;920;48.944;9.148;2023-12-20T13:34:33;4.93;;;1.60;;
1839;SDS011;920;48.944;9.148;2023-12-20T13:37:00;3.90;;;1.60;;
1839;SDS011;920;48.944;9.148;2023-12-20T13:39:26;4.00;;;1.60;;
1839;SDS011;920;48.944;9.148;2023-12-20T13:41:53;3.50;;;1.63;;
1839;SDS011;920;48.944;9.148;2023-12-20T13:44:20;5.00;;;2.00;;
1839;SDS011;920;48.944;9.148;2023-12-20T13:46:46;5.27;;;2.83;;
1839;SDS011;920;48.944;9.148;2023-12-20T13:49:16;4.23;;;2.20;;
1839;SDS011;920;48.944;9.148;2023-12-20T13:51:43;5.13;;;1.97;;
1839;SDS011;920;48.944;9.148;2023-12-20T13:54:09;3.77;;;1.60;;
1839;SDS011;920;48.944;9.148;2023-12-20T13:56:37;5.47;;;2.30;;
1839;SDS011;920;48.944;9.148;2023-12-20T13:59:03;5.97;;;2.20;;
1839;SDS011;920;48.944;9.148;2023-12-20T14:01:30;3.43;;;1.60;;
1839;SDS011;920;48.944;9.148;2023-12-20T14:03:57;4.43;;;1.90;;
1839;SDS011;920;48.944;9.148;2023-12-20T14:06:28;3.93;;;1.80;;
1839;SDS011;920;48.944;9.148;2023-12-20T14:08:54;3.47;;;1.70;;
1839;SDS011;920;48.944;9.148;2023-12-20T14:11:21;5.00;;;1.97;;
1839;SDS011;920;48.944;9.148;2023-12-20T14:13:48;4.73;;;1.67;;
1839;SDS011;920;48.944;9.148;2023-12-20T14:16:15;3.80;;;1.80;;
1839;SDS011;920;48.944;9.148;2023-12-20T14:18:41;3.90;;;1.80;;
1839;SDS011;920;48.944;9.148;2023-12-20T14:21:08;3.30;;;1.90;;
1839;SDS011;920;48.944;9.148;2023-12-20T14:23:36;6.30;;;2.10;;
1839;SDS011;920;48.944;9.148;2023-12-20T14:26:03;5.07;;;1.83;;
1839;SDS011;920;48.944;9.148;2023-12-20T14:28:30;4.67;;;1.87;;
1839;SDS011;920;48.944;9.148;2023-12-20T14:30:57;4.00;;;1.73;;
1839;SDS011;920;48.944;9.148;2023-12-20T14:33:23;4.20;;;2.03;;
1839;SDS011;920;48.944;9.148;2023-12-20T14:35:51;4.93;;;2.23;;
1839;SDS011;920;48.944;9.148;2023-12-20T14:38:17;4.63;;;2.03;;
1839;SDS011;920;48.944;9.148;2023-12-20T14:40:46;3.90;;;2.07;;
1839;SDS011;920;48.944;9.148;2023-12-20T14:43:12;3.40;;;1.87;;
1839;SDS011;920;48.944;9.148;2023-12-20T14:45:39;5.30;;;2.00;;
1839;SDS011;920;48.944;9.148;2023-12-20T14:48:06;4.87;;;2.50;;
1839;SDS011;920;48.944;9.148;2023-12-20T14:50:33;4.40;;;2.30;;
1839;SDS011;920;48.944;9.148;2023-12-20T14:53:01;3.50;;;2.40;;
1839;SDS011;920;48.944;9.148;2023-12-20T14:55:28;4.40;;;1.97;;
1839;SDS011;920;48.944;9.148;2023-12-20T14:57:56;4.57;;;2.23;;
1839;SDS011;920;48.944;9.148;2023-12-20T15:00:23;3.80;;;2.10;;
1839;SDS011;920;48.944;9.148;2023-12-20T15:02:50;3.27;;;1.80;;
1839;SDS011;920;48.944;9.148;2023-12-20T15:05:16;4.93;;;2.23;;
1839;SDS011;920;48.944;9.148;2023-12-20T15:07:43;3.83;;;2.07;;
1839;SDS011;920;48.944;9.148;2023-12-20T15:10:10;4.60;;;2.20;;
1839;SDS011;920;48.944;9.148;2023-12-20T15:12:37;4.57;;;1.70;;
1839;SDS011;920;48.944;9.148;2023-12-20T15:15:06;6.60;;;2.80;;
1839;SDS011;920;48.944;9.148;2023-12-20T15:17:34;4.83;;;2.50;;
1839;SDS011;920;48.944;9.148;2023-12-20T15:20:01;3.70;;;2.30;;
1839;SDS011;920;48.944;9.148;2023-12-20T15:22:29;5.20;;;2.13;;
1839;SDS011;920;48.944;9.148;2023-12-20T15:24:58;8.90;;;2.53;;
1839;SDS011;920;48.944;9.148;2023-12-20T15:27:26;7.30;;;2.10;;
1839;SDS011;920;48.944;9.148;2023-12-20T15:29:53;4.63;;;2.10;;